sensor_id;sensor_type;location;lat;lon;timestamp;P1;durP1;ratioP1;P2;durP2;ratioP2
46721;SDS011;32455;43.430;23.136;2022-10-04T18:12:51;2.55;;;1.40;;
46721;SDS011;32455;43.430;23.136;2022-10-04T18:16:19;1.30;;;1.20;;
46721;SDS011;32455;43.430;23.136;2022-10-04T18:22:56;1.48;;;1.38;;
46721;SDS011;32455;43.430;23.136;2022-10-04T18:25:41;1.77;;;1.67;;
46721;SDS011;32455;43.430;23.136;2022-10-04T18:28:26;2.25;;;1.65;;
46721;SDS011;32455;43.430;23.136;2022-10-04T18:34:46;1.42;;;1.20;;
46721;SDS011;32455;43.430;23.136;2022-10-04T18:46:19;2.35;;;1.45;;
46721;SDS011;32455;43.430;23.136;2022-10-04T18:52:35;1.90;;;1.50;;
46721;SDS011;32455;43.430;23.136;2022-10-04T18:55:40;1.63;;;1.52;;
46721;SDS011;32455;43.430;23.136;2022-10-04T18:58:47;2.05;;;1.65;;
46721;SDS011;32455;43.430;23.136;2022-10-04T19:20:40;2.72;;;1.40;;
46721;SDS011;32455;43.430;23.136;2022-10-04T19:23:42;1.83;;;1.48;;
46721;SDS011;32455;43.430;23.136;2022-10-04T19:26:33;1.48;;;1.38;;
46721;SDS011;32455;43.430;23.136;2022-10-04T19:44:41;5.22;;;1.77;;
46721;SDS011;32455;43.430;23.136;2022-10-04T19:50:44;1.30;;;1.23;;
46721;SDS011;32455;43.430;23.136;2022-10-04T19:56:22;1.55;;;1.40;;
46721;SDS011;32455;43.430;23.136;2022-10-04T19:59:17;1.67;;;1.17;;
46721;SDS011;32455;43.430;23.136;2022-10-04T20:02:11;1.50;;;0.95;;
46721;SDS011;32455;43.430;23.136;2022-10-04T20:04:57;2.42;;;1.63;;
46721;SDS011;32455;43.430;23.136;2022-10-04T20:07:50;1.45;;;1.00;;
46721;SDS011;32455;43.430;23.136;2022-10-04T20:10:39;1.20;;;1.10;;
46721;SDS011;32455;43.430;23.136;2022-10-04T20:13:26;3.33;;;1.15;;
46721;SDS011;32455;43.430;23.136;2022-10-04T20:16:11;1.27;;;1.17;;
46721;SDS011;32455;43.430;23.136;2022-10-04T20:18:57;1.75;;;1.00;;
46721;SDS011;32455;43.430;23.136;2022-10-04T20:21:43;0.80;;;0.80;;
46721;SDS011;32455;43.430;23.136;2022-10-04T20:30:13;2.67;;;1.20;;
46721;SDS011;32455;43.430;23.136;2022-10-04T20:33:00;1.70;;;1.00;;
46721;SDS011;32455;43.430;23.136;2022-10-04T20:36:06;1.42;;;1.00;;
46721;SDS011;32455;43.430;23.136;2022-10-04T20:38:56;0.88;;;0.88;;
46721;SDS011;32455;43.430;23.136;2022-10-04T20:41:43;2.25;;;1.17;;
46721;SDS011;32455;43.430;23.136;2022-10-04T20:45:03;2.15;;;0.82;;
46721;SDS011;32455;43.430;23.136;2022-10-04T20:48:04;1.45;;;0.80;;
46721;SDS011;32455;43.430;23.136;2022-10-04T20:51:07;2.78;;;0.98;;
46721;SDS011;32455;43.430;23.136;2022-10-04T20:53:54;1.60;;;0.80;;
46721;SDS011;32455;43.430;23.136;2022-10-04T20:56:39;0.80;;;0.80;;
46721;SDS011;32455;43.430;23.136;2022-10-04T20:59:32;0.70;;;0.60;;
46721;SDS011;32455;43.430;23.136;2022-10-04T21:02:17;0.57;;;0.57;;
46721;SDS011;32455;43.430;23.136;2022-10-04T21:05:12;1.40;;;1.00;;
46721;SDS011;32455;43.430;23.136;2022-10-04T21:08:15;0.68;;;0.68;;
46721;SDS011;32455;43.430;23.136;2022-10-04T21:13:58;0.60;;;0.60;;
46721;SDS011;32455;43.430;23.136;2022-10-04T21:16:45;1.02;;;0.63;;
46721;SDS011;32455;43.430;23.136;2022-10-04T21:25:04;0.85;;;0.73;;
46721;SDS011;32455;43.430;23.136;2022-10-04T21:28:29;0.90;;;0.80;;
46721;SDS011;32455;43.430;23.136;2022-10-04T21:31:15;1.08;;;1.02;;
46721;SDS011;32455;43.430;23.136;2022-10-04T21:34:00;0.63;;;0.60;;
46721;SDS011;32455;43.430;23.136;2022-10-04T21:36:46;0.93;;;0.65;;
46721;SDS011;32455;43.430;23.136;2022-10-04T21:39:31;1.00;;;0.60;;
46721;SDS011;32455;43.430;23.136;2022-10-04T21:42:17;1.90;;;0.73;;
46721;SDS011;32455;43.430;23.136;2022-10-04T21:45:02;1.13;;;0.60;;
46721;SDS011;32455;43.430;23.136;2022-10-04T21:47:48;0.88;;;0.80;;
46721;SDS011;32455;43.430;23.136;2022-10-04T21:50:33;0.75;;;0.75;;
46721;SDS011;32455;43.430;23.136;2022-10-04T21:53:19;0.60;;;0.60;;
46721;SDS011;32455;43.430;23.136;2022-10-04T21:56:05;1.80;;;1.02;;
46721;SDS011;32455;43.430;23.136;2022-10-04T21:58:51;1.17;;;0.63;;
46721;SDS011;32455;43.430;23.136;2022-10-04T22:01:36;1.02;;;0.80;;
46721;SDS011;32455;43.430;23.136;2022-10-04T22:04:21;1.08;;;0.50;;
46721;SDS011;32455;43.430;23.136;2022-10-04T22:07:07;1.55;;;0.60;;
46721;SDS011;32455;43.430;23.136;2022-10-04T22:09:54;0.43;;;0.43;;
46721;SDS011;32455;43.430;23.136;2022-10-04T22:12:39;0.80;;;0.80;;
46721;SDS011;32455;43.430;23.136;2022-10-04T22:15:28;1.00;;;0.68;;
46721;SDS011;32455;43.430;23.136;2022-10-04T22:18:13;2.15;;;0.70;;
46721;SDS011;32455;43.430;23.136;2022-10-04T22:20:59;0.45;;;0.45;;
46721;SDS011;32455;43.430;23.136;2022-10-04T22:23:44;1.33;;;0.68;;
46721;SDS011;32455;43.430;23.136;2022-10-04T22:26:30;0.70;;;0.70;;
46721;SDS011;32455;43.430;23.136;2022-10-04T22:29:17;0.50;;;0.50;;
46721;SDS011;32455;43.430;23.136;2022-10-04T22:32:05;0.77;;;0.77;;
46721;SDS011;32455;43.430;23.136;2022-10-04T22:35:09;0.93;;;0.75;;
46721;SDS011;32455;43.430;23.136;2022-10-04T22:37:57;1.65;;;0.80;;
46721;SDS011;32455;43.430;23.136;2022-10-04T22:40:43;1.23;;;1.13;;
46721;SDS011;32455;43.430;23.136;2022-10-04T22:43:29;2.85;;;0.60;;
46721;SDS011;32455;43.430;23.136;2022-10-04T22:46:16;0.95;;;0.73;;
46721;SDS011;32455;43.430;23.136;2022-10-04T22:49:07;1.75;;;0.73;;
46721;SDS011;32455;43.430;23.136;2022-10-04T22:51:56;1.55;;;0.93;;
46721;SDS011;32455;43.430;23.136;2022-10-04T22:54:44;2.47;;;0.82;;
46721;SDS011;32455;43.430;23.136;2022-10-04T22:57:31;1.27;;;0.80;;
46721;SDS011;32455;43.430;23.136;2022-10-04T23:00:16;2.28;;;1.10;;
46721;SDS011;32455;43.430;23.136;2022-10-04T23:03:04;0.73;;;0.73;;
46721;SDS011;32455;43.430;23.136;2022-10-04T23:06:10;1.58;;;0.88;;
46721;SDS011;32455;43.430;23.136;2022-10-04T23:08:58;1.08;;;0.70;;
46721;SDS011;32455;43.430;23.136;2022-10-04T23:11:43;6.38;;;0.80;;
46721;SDS011;32455;43.430;23.136;2022-10-04T23:14:29;5.43;;;0.93;;
46721;SDS011;32455;43.430;23.136;2022-10-04T23:20:12;1.00;;;0.90;;
46721;SDS011;32455;43.430;23.136;2022-10-04T23:22:59;0.82;;;0.82;;
46721;SDS011;32455;43.430;23.136;2022-10-04T23:25:44;0.85;;;0.80;;
46721;SDS011;32455;43.430;23.136;2022-10-04T23:28:30;1.77;;;0.90;;
46721;SDS011;32455;43.430;23.136;2022-10-04T23:31:21;1.15;;;0.77;;
46721;SDS011;32455;43.430;23.136;2022-10-04T23:34:41;0.77;;;0.77;;
46721;SDS011;32455;43.430;23.136;2022-10-04T23:37:28;1.70;;;1.05;;
46721;SDS011;32455;43.430;23.136;2022-10-04T23:40:17;1.80;;;0.88;;
46721;SDS011;32455;43.430;23.136;2022-10-04T23:43:04;1.10;;;0.90;;
46721;SDS011;32455;43.430;23.136;2022-10-04T23:45:54;1.17;;;0.88;;
46721;SDS011;32455;43.430;23.136;2022-10-04T23:48:41;1.45;;;0.90;;
46721;SDS011;32455;43.430;23.136;2022-10-04T23:51:27;1.40;;;0.98;;
46721;SDS011;32455;43.430;23.136;2022-10-04T23:54:13;1.00;;;0.98;;
46721;SDS011;32455;43.430;23.136;2022-10-04T23:57:00;2.35;;;1.73;;
46721;SDS011;32455;43.430;23.136;2022-10-04T23:59:46;6.00;;;3.28;;
